createdAt,value
2023-01-15T00:00:30.033Z,51.67
2023-01-15T00:01:30.040Z,50.24
2023-01-15T00:02:30.044Z,46.49
2023-01-15T00:03:30.018Z,50.57
2023-01-15T00:04:29.982Z,47.67
2023-01-15T00:05:29.969Z,47.80
2023-01-15T00:06:29.956Z,46.05
2023-01-15T00:07:29.950Z,50.66
2023-01-15T00:08:29.943Z,50.54
2023-01-15T00:09:29.919Z,45.49
2023-01-15T00:10:29.919Z,45.76
2023-01-15T00:11:30.759Z,49.67
2023-01-15T00:12:29.900Z,45.44
2023-01-15T00:13:29.925Z,47.04
2023-01-15T00:14:29.877Z,46.81
2023-01-15T00:15:29.867Z,45.15
2023-01-15T00:16:29.850Z,45.53
2023-01-15T00:17:29.828Z,45.92
2023-01-15T00:18:30.844Z,47.08
2023-01-15T00:19:29.853Z,47.10
2023-01-15T00:20:29.816Z,48.13
2023-01-15T00:21:29.799Z,48.91
2023-01-15T00:22:29.795Z,48.08
2023-01-15T00:23:29.798Z,45.53
2023-01-15T00:24:29.765Z,44.57
2023-01-15T00:25:29.763Z,45.58
2023-01-15T00:26:29.738Z,45.24
2023-01-15T00:27:29.740Z,47.12
2023-01-15T00:28:29.733Z,48.71
2023-01-15T00:29:29.732Z,47.04
2023-01-15T00:30:29.711Z,46.03
2023-01-15T00:31:29.739Z,48.18
2023-01-15T00:32:29.687Z,44.53
2023-01-15T00:33:29.679Z,43.69
2023-01-15T00:34:29.668Z,46.22
2023-01-15T00:35:29.660Z,46.85
2023-01-15T00:36:30.755Z,45.77
2023-01-15T00:37:29.631Z,46.84
2023-01-15T00:38:29.626Z,44.32
2023-01-15T00:39:29.629Z,44.03
2023-01-15T00:40:29.612Z,47.16
2023-01-15T00:41:30.748Z,45.04
2023-01-15T00:42:29.580Z,48.23
2023-01-15T00:43:29.574Z,43.49
2023-01-15T00:44:29.602Z,43.72
2023-01-15T00:45:29.547Z,45.62
2023-01-15T00:46:29.543Z,47.63
2023-01-15T00:47:30.260Z,44.38
2023-01-15T00:48:30.516Z,43.21
2023-01-15T00:49:29.530Z,44.24
2023-01-15T00:50:29.498Z,44.89
2023-01-15T00:51:29.494Z,50.41
2023-01-15T00:52:29.480Z,46.71
2023-01-15T00:53:29.469Z,44.61
2023-01-15T00:54:29.479Z,45.90
2023-01-15T00:55:29.449Z,48.47
2023-01-15T00:56:29.445Z,46.77
2023-01-15T00:57:29.423Z,50.25
2023-01-15T00:58:29.424Z,51.65
2023-01-15T00:59:29.415Z,47.98
2023-01-15T01:00:29.464Z,52.83
2023-01-15T01:01:29.466Z,59.84
2023-01-15T01:02:29.517Z,58.18
2023-01-15T01:03:29.364Z,58.68
2023-01-15T01:04:29.366Z,56.61
2023-01-15T01:05:29.332Z,53.71
2023-01-15T01:06:30.285Z,56.49
2023-01-15T01:07:29.315Z,52.97
2023-01-15T01:08:29.308Z,47.42
2023-01-15T01:09:29.300Z,49.65
2023-01-15T01:10:29.300Z,52.52
2023-01-15T01:11:29.271Z,47.81
2023-01-15T01:12:29.271Z,47.74
2023-01-15T01:13:29.270Z,51.84
2023-01-15T01:14:29.264Z,55.26
2023-01-15T01:15:29.260Z,55.77
2023-01-15T01:16:29.251Z,55.27
2023-01-15T01:17:29.217Z,53.22
2023-01-15T01:18:29.207Z,49.63
2023-01-15T01:19:29.196Z,46.74
2023-01-15T01:20:29.192Z,45.60
2023-01-15T01:21:29.180Z,48.74
2023-01-15T01:22:29.173Z,51.11
2023-01-15T01:23:29.154Z,51.93
2023-01-15T01:24:29.153Z,53.88
2023-01-15T01:25:29.146Z,55.44
2023-01-15T01:26:29.130Z,54.45
2023-01-15T01:27:29.109Z,54.28
2023-01-15T01:28:29.097Z,51.48
2023-01-15T01:29:29.105Z,48.87
2023-01-15T01:30:29.091Z,48.45
2023-01-15T01:31:29.091Z,47.84
2023-01-15T01:32:29.069Z,49.56
2023-01-15T01:33:29.051Z,49.60
2023-01-15T01:34:29.029Z,47.30
2023-01-15T01:35:29.041Z,46.20
2023-01-15T01:36:29.015Z,49.07
2023-01-15T01:37:29.006Z,46.68
2023-01-15T01:38:28.989Z,47.26
2023-01-15T01:39:28.990Z,48.92
2023-01-15T01:40:28.990Z,49.00
2023-01-15T01:41:28.970Z,49.56
2023-01-15T01:42:28.968Z,49.43
2023-01-15T01:43:29.966Z,55.58
2023-01-15T01:44:28.947Z,57.15
2023-01-15T01:45:29.013Z,55.92
2023-01-15T01:46:28.927Z,54.49
2023-01-15T01:47:28.904Z,56.25
2023-01-15T01:48:28.891Z,58.48
2023-01-15T01:49:28.883Z,58.67
2023-01-15T01:50:28.885Z,56.62
2023-01-15T01:51:28.867Z,51.33
2023-01-15T01:52:28.855Z,50.11
2023-01-15T01:53:28.847Z,50.96
2023-01-15T01:54:28.833Z,49.16
2023-01-15T01:55:28.832Z,48.45
2023-01-15T01:56:28.813Z,47.90
2023-01-15T01:57:28.798Z,46.39
2023-01-15T01:58:28.788Z,45.20
2023-01-15T01:59:28.767Z,44.24
2023-01-15T02:00:28.759Z,44.09
2023-01-15T02:01:28.923Z,47.71
2023-01-15T02:02:28.790Z,44.73
2023-01-15T02:03:28.742Z,45.00
2023-01-15T02:04:28.728Z,44.94
2023-01-15T02:05:28.713Z,45.42
2023-01-15T02:06:28.711Z,45.10
2023-01-15T02:07:28.684Z,45.87
2023-01-15T02:08:28.680Z,49.15
2023-01-15T02:09:28.666Z,55.43
2023-01-15T02:10:28.649Z,55.74
2023-01-15T02:11:28.655Z,55.45
2023-01-15T02:12:28.641Z,56.18
2023-01-15T02:13:28.623Z,54.46
2023-01-15T02:14:28.604Z,52.22
2023-01-15T02:15:28.603Z,49.99
2023-01-15T02:16:28.716Z,48.65
2023-01-15T02:17:28.568Z,50.40
2023-01-15T02:18:28.571Z,47.12
2023-01-15T02:19:28.551Z,46.54
2023-01-15T02:20:28.552Z,45.10
2023-01-15T02:21:28.537Z,44.99
2023-01-15T02:22:28.524Z,48.16
2023-01-15T02:23:28.537Z,44.04
2023-01-15T02:24:28.494Z,43.59
2023-01-15T02:25:28.532Z,44.32
2023-01-15T02:26:28.498Z,43.46
2023-01-15T02:27:28.466Z,43.28
2023-01-15T02:28:28.460Z,47.01
2023-01-15T02:29:28.447Z,45.21
2023-01-15T02:30:28.456Z,46.16
2023-01-15T02:31:28.481Z,49.14
2023-01-15T02:32:28.421Z,48.97
2023-01-15T02:33:28.402Z,43.70
2023-01-15T02:34:28.405Z,43.96
2023-01-15T02:35:28.384Z,46.88
2023-01-15T02:36:28.399Z,48.80
2023-01-15T02:37:28.382Z,49.28
2023-01-15T02:38:28.353Z,49.02
2023-01-15T02:39:28.342Z,52.57
2023-01-15T02:40:28.326Z,48.26
2023-01-15T02:41:28.341Z,47.35
2023-01-15T02:42:28.302Z,47.37
2023-01-15T02:43:28.307Z,46.48
2023-01-15T02:44:28.278Z,46.36
2023-01-15T02:45:29.307Z,46.49
2023-01-15T02:46:28.281Z,46.21
2023-01-15T02:47:28.262Z,49.27
2023-01-15T02:48:28.256Z,46.49
2023-01-15T02:49:28.239Z,46.35
2023-01-15T02:50:28.230Z,45.71
2023-01-15T02:51:28.223Z,46.51
2023-01-15T02:52:28.205Z,44.76
2023-01-15T02:53:28.209Z,45.77
2023-01-15T02:54:28.223Z,47.01
2023-01-15T02:55:28.182Z,44.80
2023-01-15T02:56:28.184Z,45.11
2023-01-15T02:57:28.162Z,45.32
2023-01-15T02:58:28.137Z,44.55
2023-01-15T02:59:28.129Z,43.93
2023-01-15T03:00:28.125Z,43.72
2023-01-15T03:01:28.318Z,44.37
2023-01-15T03:02:28.155Z,45.90
2023-01-15T03:03:28.092Z,47.65
2023-01-15T03:04:28.090Z,43.37
2023-01-15T03:05:28.071Z,43.48
2023-01-15T03:06:28.073Z,43.44
2023-01-15T03:07:28.060Z,42.56
2023-01-15T03:08:28.034Z,42.02
2023-01-15T03:09:28.026Z,41.90
2023-01-15T03:10:28.029Z,42.67
2023-01-15T03:11:28.000Z,42.37
2023-01-15T03:12:27.993Z,42.57
2023-01-15T03:13:27.981Z,42.47
2023-01-15T03:14:27.967Z,42.55
2023-01-15T03:15:27.959Z,43.03
2023-01-15T03:16:28.022Z,50.45
2023-01-15T03:17:27.953Z,42.01
2023-01-15T03:18:27.930Z,41.06
2023-01-15T03:19:27.931Z,41.58
2023-01-15T03:20:27.905Z,42.79
2023-01-15T03:21:27.898Z,46.65
2023-01-15T03:22:27.886Z,44.67
2023-01-15T03:23:27.889Z,44.65
2023-01-15T03:24:28.860Z,43.52
2023-01-15T03:25:27.915Z,44.11
2023-01-15T03:26:27.902Z,43.91
2023-01-15T03:27:27.886Z,43.45
2023-01-15T03:28:27.821Z,42.59
2023-01-15T03:29:27.807Z,43.13
2023-01-15T03:30:27.838Z,43.16
2023-01-15T03:31:27.781Z,42.29
2023-01-15T03:32:27.777Z,41.97
2023-01-15T03:33:27.758Z,42.21
2023-01-15T03:34:27.759Z,42.41
2023-01-15T03:35:27.761Z,41.53
2023-01-15T03:36:27.761Z,41.69
2023-01-15T03:37:27.736Z,42.23
2023-01-15T03:38:27.708Z,42.12
2023-01-15T03:39:27.701Z,46.34
2023-01-15T03:40:27.682Z,41.32
2023-01-15T03:41:27.671Z,41.03
2023-01-15T03:42:27.669Z,41.25
2023-01-15T03:43:27.653Z,41.93
2023-01-15T03:44:27.651Z,45.89
2023-01-15T03:45:27.640Z,45.28
2023-01-15T03:46:27.621Z,45.74
2023-01-15T03:47:27.622Z,49.22
2023-01-15T03:48:27.599Z,48.96
2023-01-15T03:49:27.593Z,49.14
2023-01-15T03:50:27.593Z,43.78
2023-01-15T03:51:27.562Z,42.32
2023-01-15T03:52:27.559Z,42.50
2023-01-15T03:53:27.539Z,42.86
2023-01-15T03:54:27.531Z,42.80
2023-01-15T03:55:27.516Z,42.97
2023-01-15T03:56:27.513Z,44.79
2023-01-15T03:57:27.503Z,45.24
2023-01-15T03:58:27.493Z,46.71
2023-01-15T03:59:27.479Z,46.67
2023-01-15T04:00:27.498Z,50.72
2023-01-15T04:01:27.564Z,50.17
2023-01-15T04:02:27.467Z,52.10
2023-01-15T04:03:27.442Z,51.49
2023-01-15T04:04:27.465Z,54.39
2023-01-15T04:05:27.427Z,55.69
2023-01-15T04:06:28.407Z,54.86
2023-01-15T04:07:27.407Z,52.27
2023-01-15T04:08:27.396Z,51.60
2023-01-15T04:09:27.381Z,54.29
2023-01-15T04:10:27.381Z,54.36
2023-01-15T04:11:27.351Z,51.36
2023-01-15T04:12:27.361Z,51.44
2023-01-15T04:13:29.352Z,51.42
2023-01-15T04:14:27.319Z,51.08
2023-01-15T04:15:27.367Z,48.89
2023-01-15T04:16:27.312Z,46.42
2023-01-15T04:17:27.311Z,47.70
2023-01-15T04:18:27.277Z,48.53
2023-01-15T04:19:27.272Z,47.47
2023-01-15T04:20:27.265Z,48.27
2023-01-15T04:21:27.254Z,48.98
2023-01-15T04:22:27.250Z,51.69
2023-01-15T04:23:27.241Z,47.14
2023-01-15T04:24:27.223Z,45.80
2023-01-15T04:25:27.250Z,48.85
2023-01-15T04:26:27.202Z,44.60
2023-01-15T04:27:27.188Z,42.16
2023-01-15T04:28:27.186Z,41.97
2023-01-15T04:29:27.168Z,43.50
2023-01-15T04:30:27.156Z,44.60
2023-01-15T04:31:27.145Z,43.65
2023-01-15T04:32:27.132Z,44.46
2023-01-15T04:33:27.134Z,43.53
2023-01-15T04:34:27.123Z,46.55
2023-01-15T04:35:27.112Z,44.50
2023-01-15T04:36:27.093Z,42.43
2023-01-15T04:37:27.083Z,43.44
2023-01-15T04:38:27.093Z,45.18
2023-01-15T04:39:27.063Z,45.05
2023-01-15T04:40:27.049Z,42.35
2023-01-15T04:41:27.045Z,43.54
2023-01-15T04:42:27.038Z,45.60
2023-01-15T04:43:27.028Z,43.12
2023-01-15T04:44:27.029Z,41.93
2023-01-15T04:45:27.006Z,43.02
2023-01-15T04:46:27.008Z,43.67
2023-01-15T04:47:26.982Z,42.66
2023-01-15T04:48:26.997Z,41.37
2023-01-15T04:49:26.954Z,40.95
2023-01-15T04:50:26.947Z,40.98
2023-01-15T04:51:26.944Z,40.67
2023-01-15T04:52:26.937Z,40.27
2023-01-15T04:53:26.930Z,40.87
2023-01-15T04:54:26.905Z,41.40
2023-01-15T04:55:26.898Z,41.28
2023-01-15T04:56:26.889Z,40.90
2023-01-15T04:57:26.889Z,41.28
2023-01-15T04:58:26.878Z,41.49
2023-01-15T04:59:26.857Z,45.71
2023-01-15T05:00:27.842Z,46.03
2023-01-15T05:01:26.936Z,42.55
2023-01-15T05:02:26.999Z,41.83
2023-01-15T05:03:26.840Z,41.43
2023-01-15T05:04:26.842Z,41.71
2023-01-15T05:05:26.804Z,42.95
2023-01-15T05:06:26.786Z,43.15
2023-01-15T05:07:26.775Z,45.30
2023-01-15T05:08:26.769Z,45.61
2023-01-15T05:09:26.756Z,43.86
2023-01-15T05:10:26.750Z,47.25
2023-01-15T05:11:26.739Z,44.90
2023-01-15T05:12:27.725Z,45.09
2023-01-15T05:13:26.728Z,44.86
2023-01-15T05:14:26.697Z,44.54
2023-01-15T05:15:26.691Z,44.47
2023-01-15T05:16:26.689Z,49.76
2023-01-15T05:17:26.676Z,45.09
2023-01-15T05:18:26.677Z,43.97
2023-01-15T05:19:26.644Z,43.73
2023-01-15T05:20:26.637Z,43.95
2023-01-15T05:21:26.634Z,45.01
2023-01-15T05:22:26.622Z,46.23
2023-01-15T05:23:26.625Z,45.66
2023-01-15T05:24:26.605Z,42.88
2023-01-15T05:25:26.585Z,42.39
2023-01-15T05:26:26.587Z,43.08
2023-01-15T05:27:26.573Z,42.57
2023-01-15T05:28:26.554Z,41.80
2023-01-15T05:29:26.574Z,41.49
2023-01-15T05:30:26.541Z,42.66
2023-01-15T05:31:26.582Z,42.68
2023-01-15T05:32:26.517Z,44.33
2023-01-15T05:33:26.495Z,45.20
2023-01-15T05:34:26.501Z,45.86
2023-01-15T05:35:26.476Z,49.07
2023-01-15T05:36:26.476Z,48.20
2023-01-15T05:37:26.450Z,46.20
2023-01-15T05:38:26.452Z,45.14
2023-01-15T05:39:26.441Z,46.27
2023-01-15T05:40:26.436Z,45.90
2023-01-15T05:41:26.425Z,47.53
2023-01-15T05:42:26.414Z,45.98
2023-01-15T05:43:26.393Z,46.99
2023-01-15T05:44:26.404Z,48.00
2023-01-15T05:45:26.384Z,48.64
2023-01-15T05:46:26.383Z,50.07
2023-01-15T05:47:26.360Z,48.61
2023-01-15T05:48:26.360Z,49.69
2023-01-15T05:49:26.368Z,52.97
2023-01-15T05:50:28.381Z,48.52
2023-01-15T05:51:26.311Z,47.50
2023-01-15T05:52:26.307Z,47.18
2023-01-15T05:53:26.295Z,47.83
2023-01-15T05:54:26.319Z,48.89
2023-01-15T05:55:26.273Z,49.74
2023-01-15T05:56:26.275Z,49.21
2023-01-15T05:57:26.258Z,48.81
2023-01-15T05:58:26.246Z,49.41
2023-01-15T05:59:26.269Z,49.84
2023-01-15T06:00:26.231Z,48.86
2023-01-15T06:01:26.231Z,48.41
2023-01-15T06:02:26.225Z,50.03
2023-01-15T06:03:26.200Z,47.11
2023-01-15T06:04:26.190Z,46.97
2023-01-15T06:05:26.183Z,47.25
2023-01-15T06:06:26.170Z,49.02
2023-01-15T06:07:26.162Z,46.41
2023-01-15T06:08:26.150Z,50.38
2023-01-15T06:09:26.147Z,46.18
2023-01-15T06:10:27.128Z,45.66
2023-01-15T06:11:26.117Z,44.64
2023-01-15T06:12:26.105Z,45.59
2023-01-15T06:13:26.111Z,46.10
2023-01-15T06:14:26.112Z,46.98
2023-01-15T06:15:26.082Z,47.69
2023-01-15T06:16:26.070Z,49.77
2023-01-15T06:17:26.064Z,49.88
2023-01-15T06:18:26.062Z,50.66
2023-01-15T06:19:26.057Z,50.05
2023-01-15T06:20:26.043Z,49.10
2023-01-15T06:21:26.015Z,48.40
2023-01-15T06:22:26.015Z,47.91
2023-01-15T06:23:25.996Z,48.43
2023-01-15T06:24:26.000Z,48.57
2023-01-15T06:25:25.982Z,47.45
2023-01-15T06:26:25.972Z,46.34
2023-01-15T06:27:25.969Z,45.35
2023-01-15T06:28:25.947Z,44.67
2023-01-15T06:29:25.948Z,46.91
2023-01-15T06:30:25.929Z,49.04
2023-01-15T06:31:25.950Z,47.35
2023-01-15T06:32:25.901Z,46.37
2023-01-15T06:33:25.905Z,51.67
2023-01-15T06:34:25.904Z,46.34
2023-01-15T06:35:25.892Z,53.38
2023-01-15T06:36:25.868Z,47.12
2023-01-15T06:37:25.859Z,43.13
2023-01-15T06:38:25.857Z,42.78
2023-01-15T06:39:25.863Z,42.55
2023-01-15T06:40:25.828Z,42.66
2023-01-15T06:41:25.828Z,44.97
2023-01-15T06:42:25.797Z,45.53
2023-01-15T06:43:25.826Z,42.34
2023-01-15T06:44:28.225Z,43.35
2023-01-15T06:45:25.790Z,42.47
2023-01-15T06:46:25.783Z,42.90
2023-01-15T06:47:25.769Z,48.11
2023-01-15T06:48:25.748Z,46.89
2023-01-15T06:49:25.738Z,42.57
2023-01-15T06:50:25.748Z,42.75
2023-01-15T06:51:25.723Z,50.46
2023-01-15T06:52:25.731Z,50.49
2023-01-15T06:53:25.699Z,45.24
2023-01-15T06:54:25.691Z,46.59
2023-01-15T06:55:25.683Z,42.21
2023-01-15T06:56:25.671Z,45.03
2023-01-15T06:57:25.669Z,48.30
2023-01-15T06:58:25.649Z,45.37
2023-01-15T06:59:25.653Z,47.77
2023-01-15T07:00:25.672Z,44.25
2023-01-15T07:01:25.717Z,43.34
2023-01-15T07:02:25.622Z,53.72
2023-01-15T07:03:25.609Z,43.79
2023-01-15T07:04:25.602Z,44.17
2023-01-15T07:05:25.594Z,45.78
2023-01-15T07:06:26.511Z,48.61
2023-01-15T07:07:26.565Z,44.12
2023-01-15T07:08:25.554Z,46.92
2023-01-15T07:09:25.570Z,45.86
2023-01-15T07:10:25.563Z,48.07
2023-01-15T07:11:25.537Z,45.94
2023-01-15T07:12:25.537Z,43.47
2023-01-15T07:13:25.509Z,49.08
2023-01-15T07:14:25.510Z,44.62
2023-01-15T07:15:25.495Z,42.51
2023-01-15T07:16:25.498Z,46.01
2023-01-15T07:17:25.478Z,42.96
2023-01-15T07:18:25.459Z,50.05
2023-01-15T07:19:25.455Z,43.59
2023-01-15T07:20:25.448Z,43.06
2023-01-15T07:21:25.431Z,43.09
2023-01-15T07:22:25.414Z,46.49
2023-01-15T07:23:25.416Z,51.55
2023-01-15T07:24:25.408Z,43.20
2023-01-15T07:25:25.395Z,45.45
2023-01-15T07:26:25.371Z,48.62
2023-01-15T07:27:25.371Z,42.84
2023-01-15T07:28:25.385Z,47.15
2023-01-15T07:29:26.352Z,42.90
2023-01-15T07:30:25.353Z,47.41
2023-01-15T07:31:25.351Z,46.04
2023-01-15T07:32:25.314Z,43.98
2023-01-15T07:33:25.297Z,42.37
2023-01-15T07:34:26.307Z,42.56
2023-01-15T07:35:25.904Z,42.71
2023-01-15T07:36:25.279Z,42.94
2023-01-15T07:37:26.849Z,45.44
2023-01-15T07:39:20.524Z,42.82
2023-01-15T07:39:25.310Z,52.12
2023-01-15T07:40:25.284Z,46.83
2023-01-15T07:41:25.300Z,42.88
2023-01-15T07:42:25.245Z,42.80
2023-01-15T07:43:25.221Z,42.72
2023-01-15T07:44:25.210Z,47.87
2023-01-15T07:45:25.233Z,47.20
2023-01-15T07:46:25.195Z,46.19
2023-01-15T07:47:25.177Z,47.14
2023-01-15T07:48:25.167Z,48.12
2023-01-15T07:49:25.157Z,46.80
2023-01-15T07:50:25.155Z,44.64
2023-01-15T07:51:25.147Z,47.44
2023-01-15T07:52:25.134Z,43.03
2023-01-15T07:53:25.138Z,48.78
2023-01-15T07:54:25.107Z,43.39
2023-01-15T07:55:25.120Z,48.84
2023-01-15T07:56:25.120Z,46.96
2023-01-15T07:57:25.073Z,46.37
2023-01-15T07:58:25.070Z,47.68
2023-01-15T07:59:25.083Z,45.12
2023-01-15T08:00:25.053Z,47.26
2023-01-15T08:01:25.100Z,44.36
2023-01-15T08:02:25.043Z,47.71
2023-01-15T08:03:25.019Z,48.38
2023-01-15T08:04:24.997Z,49.75
2023-01-15T08:05:24.999Z,53.71
2023-01-15T08:06:25.002Z,49.69
2023-01-15T08:07:24.969Z,48.61
2023-01-15T08:08:24.971Z,49.24
2023-01-15T08:09:24.957Z,46.60
2023-01-15T08:10:24.949Z,49.85
2023-01-15T08:11:24.955Z,51.24
2023-01-15T08:12:24.926Z,49.66
2023-01-15T08:13:24.920Z,47.05
2023-01-15T08:14:24.914Z,48.46
2023-01-15T08:15:24.895Z,49.68
2023-01-15T08:16:24.919Z,45.63
2023-01-15T08:17:24.906Z,48.92
2023-01-15T08:18:24.868Z,51.95
2023-01-15T08:19:24.867Z,47.32
2023-01-15T08:20:24.857Z,52.31
2023-01-15T08:21:24.834Z,50.93
2023-01-15T08:22:24.839Z,48.72
2023-01-15T08:23:24.823Z,45.94
2023-01-15T08:24:24.822Z,46.58
2023-01-15T08:25:24.811Z,52.42
2023-01-15T08:26:24.797Z,45.84
2023-01-15T08:27:24.802Z,45.95
2023-01-15T08:28:24.781Z,50.98
2023-01-15T08:29:24.768Z,46.16
2023-01-15T08:30:24.745Z,53.63
2023-01-15T08:31:24.800Z,55.38
2023-01-15T08:32:24.735Z,58.04
2023-01-15T08:33:24.727Z,58.60
2023-01-15T08:34:24.722Z,57.45
2023-01-15T08:35:24.698Z,55.66
2023-01-15T08:36:24.703Z,45.92
2023-01-15T08:37:25.503Z,49.78
2023-01-15T08:38:25.689Z,46.99
2023-01-15T08:39:24.656Z,49.12
2023-01-15T08:40:24.657Z,51.24
2023-01-15T08:41:24.637Z,47.76
2023-01-15T08:42:24.641Z,50.85
2023-01-15T08:43:24.620Z,52.01
2023-01-15T08:44:24.705Z,50.12
2023-01-15T08:45:24.779Z,49.65
2023-01-15T08:46:24.603Z,48.45
2023-01-15T08:47:24.597Z,48.35
2023-01-15T08:48:24.557Z,45.63
2023-01-15T08:49:24.553Z,46.99
2023-01-15T08:50:24.612Z,50.45
2023-01-15T08:51:24.526Z,58.26
2023-01-15T08:52:24.543Z,57.10
2023-01-15T08:53:24.509Z,57.40
2023-01-15T08:54:24.515Z,57.02
2023-01-15T08:55:24.493Z,56.59
2023-01-15T08:56:24.487Z,56.44
2023-01-15T08:57:24.483Z,55.08
2023-01-15T08:58:24.484Z,54.19
2023-01-15T08:59:24.468Z,55.62
2023-01-15T09:00:24.511Z,55.55
2023-01-15T09:01:24.597Z,52.89
2023-01-15T09:02:25.375Z,48.26
2023-01-15T09:03:24.427Z,50.17
2023-01-15T09:04:24.448Z,55.70
2023-01-15T09:05:24.384Z,49.66
2023-01-15T09:06:24.370Z,49.94
2023-01-15T09:07:24.440Z,55.13
2023-01-15T09:08:24.373Z,52.67
2023-01-15T09:09:24.344Z,50.05
2023-01-15T09:10:24.339Z,49.11
2023-01-15T09:11:24.344Z,54.57
2023-01-15T09:12:24.316Z,49.96
2023-01-15T09:13:24.340Z,49.38
2023-01-15T09:14:57.836Z,49.32
2023-01-15T09:15:25.275Z,52.60
2023-01-15T09:16:24.277Z,52.65
2023-01-15T09:17:24.256Z,50.25
2023-01-15T09:18:24.425Z,51.78
2023-01-15T09:19:24.239Z,47.39
2023-01-15T09:20:24.232Z,48.88
2023-01-15T09:21:24.230Z,45.75
2023-01-15T09:22:24.216Z,50.01
2023-01-15T09:23:24.215Z,51.90
2023-01-15T09:24:24.195Z,48.37
2023-01-15T09:25:24.184Z,50.21
2023-01-15T09:26:24.172Z,49.07
2023-01-15T09:27:24.183Z,48.25
2023-01-15T09:28:24.171Z,51.47
2023-01-15T09:29:24.138Z,51.03
2023-01-15T09:30:24.136Z,48.87
2023-01-15T09:31:24.123Z,49.95
2023-01-15T09:32:24.124Z,46.02
2023-01-15T09:33:24.103Z,46.63
2023-01-15T09:34:24.100Z,50.05
2023-01-15T09:35:24.083Z,47.10
2023-01-15T09:36:24.080Z,52.40
2023-01-15T09:37:24.058Z,48.51
2023-01-15T09:38:24.052Z,50.69
2023-01-15T09:39:24.049Z,49.98
2023-01-15T09:40:24.034Z,51.79
2023-01-15T09:41:24.023Z,51.56
2023-01-15T09:42:24.019Z,47.72
2023-01-15T09:43:24.010Z,46.42
2023-01-15T09:44:24.012Z,46.92
2023-01-15T09:45:23.984Z,49.67
2023-01-15T09:46:24.011Z,51.13
2023-01-15T09:47:23.972Z,49.81
2023-01-15T09:48:23.954Z,50.49
2023-01-15T09:49:23.960Z,52.77
2023-01-15T09:50:23.934Z,47.31
2023-01-15T09:51:23.927Z,47.89
2023-01-15T09:52:23.911Z,50.82
2023-01-15T09:53:23.901Z,56.91
2023-01-15T09:54:23.903Z,49.83
2023-01-15T09:55:23.935Z,50.11
2023-01-15T09:56:23.890Z,52.45
2023-01-15T09:57:23.901Z,52.29
2023-01-15T09:58:23.877Z,46.90
2023-01-15T09:59:23.880Z,53.02
2023-01-15T10:00:23.856Z,49.33
2023-01-15T10:01:23.845Z,46.36
2023-01-15T10:02:23.820Z,49.44
2023-01-15T10:03:23.924Z,55.30
2023-01-15T10:04:23.846Z,48.42
2023-01-15T10:05:23.811Z,53.07
2023-01-15T10:06:23.793Z,47.10
2023-01-15T10:07:23.775Z,49.93
2023-01-15T10:08:23.765Z,47.74
2023-01-15T10:09:23.771Z,48.63
2023-01-15T10:10:23.733Z,51.05
2023-01-15T10:11:23.713Z,47.93
2023-01-15T10:12:23.712Z,47.99
2023-01-15T10:13:23.712Z,52.27
2023-01-15T10:14:23.704Z,51.21
2023-01-15T10:15:23.684Z,48.10
2023-01-15T10:16:23.689Z,49.43
2023-01-15T10:17:23.665Z,53.23
2023-01-15T10:18:23.639Z,50.49
2023-01-15T10:19:23.634Z,49.62
2023-01-15T10:20:23.647Z,52.92
2023-01-15T10:21:23.617Z,51.05
2023-01-15T10:22:23.618Z,46.09
2023-01-15T10:23:23.605Z,46.25
2023-01-15T10:24:23.600Z,46.08
2023-01-15T10:25:23.579Z,50.09
2023-01-15T10:26:23.563Z,49.36
2023-01-15T10:27:23.560Z,48.89
2023-01-15T10:28:23.546Z,50.50
2023-01-15T10:29:23.539Z,54.59
2023-01-15T10:30:23.528Z,51.15
2023-01-15T10:31:23.574Z,52.85
2023-01-15T10:32:23.510Z,49.89
2023-01-15T10:33:23.498Z,48.80
2023-01-15T10:34:23.485Z,48.41
2023-01-15T10:35:23.487Z,52.18
2023-01-15T10:36:23.485Z,52.02
2023-01-15T10:37:23.460Z,53.22
2023-01-15T10:38:23.445Z,49.93
2023-01-15T10:39:23.446Z,50.77
2023-01-15T10:40:23.447Z,53.01
2023-01-15T10:41:23.395Z,52.92
2023-01-15T10:42:24.409Z,48.01
2023-01-15T10:43:23.383Z,47.66
2023-01-15T10:44:23.399Z,54.08
2023-01-15T10:45:23.376Z,50.83
2023-01-15T10:46:23.407Z,51.04
2023-01-15T10:47:23.361Z,51.07
2023-01-15T10:48:23.340Z,52.13
2023-01-15T10:49:23.348Z,52.37
2023-01-15T10:50:23.332Z,54.23
2023-01-15T10:51:23.300Z,54.63
2023-01-15T10:52:23.293Z,48.11
2023-01-15T10:53:23.275Z,47.65
2023-01-15T10:54:23.284Z,47.81
2023-01-15T10:55:23.275Z,52.18
2023-01-15T10:56:23.251Z,50.87
2023-01-15T10:57:23.245Z,51.55
2023-01-15T10:58:23.226Z,50.12
2023-01-15T10:59:23.218Z,47.91
2023-01-15T11:00:23.247Z,51.87
2023-01-15T11:01:23.331Z,51.54
2023-01-15T11:02:23.325Z,51.38
2023-01-15T11:03:23.191Z,54.44
2023-01-15T11:04:23.173Z,51.62
2023-01-15T11:05:23.150Z,52.31
2023-01-15T11:06:23.150Z,48.58
2023-01-15T11:07:23.369Z,53.15
2023-01-15T11:09:25.157Z,53.75
2023-01-15T11:10:23.140Z,53.73
2023-01-15T11:11:23.135Z,51.16
2023-01-15T11:12:23.097Z,48.33
2023-01-15T11:13:23.094Z,51.82
2023-01-15T11:14:23.128Z,48.73
2023-01-15T11:15:23.092Z,55.86
2023-01-15T11:16:23.096Z,52.66
2023-01-15T11:17:23.093Z,51.66
2023-01-15T11:18:23.100Z,49.93
2023-01-15T11:19:23.065Z,55.54
2023-01-15T11:20:23.038Z,52.34
2023-01-15T11:21:23.087Z,47.71
2023-01-15T11:22:23.050Z,52.20
2023-01-15T11:23:23.040Z,49.48
2023-01-15T11:24:22.998Z,49.65
2023-01-15T11:25:23.031Z,50.35
2023-01-15T11:26:23.008Z,50.96
2023-01-15T11:27:23.008Z,49.83
2023-01-15T11:28:22.973Z,53.88
2023-01-15T11:29:22.931Z,49.68
2023-01-15T11:30:22.983Z,53.21
2023-01-15T11:31:22.968Z,55.65
2023-01-15T11:32:22.947Z,49.59
2023-01-15T11:33:22.950Z,48.33
2023-01-15T11:34:22.915Z,52.90
2023-01-15T11:35:22.907Z,48.46
2023-01-15T11:36:22.923Z,47.78
2023-01-15T11:37:22.884Z,48.62
2023-01-15T11:38:22.865Z,48.85
2023-01-15T11:39:22.850Z,49.46
2023-01-15T11:40:22.856Z,53.24
2023-01-15T11:41:22.885Z,52.00
2023-01-15T11:42:22.883Z,52.13
2023-01-15T11:43:22.798Z,48.98
2023-01-15T11:44:22.831Z,52.13
2023-01-15T11:45:22.863Z,51.43
2023-01-15T11:46:22.838Z,53.97
2023-01-15T11:47:22.796Z,51.07
2023-01-15T11:48:22.768Z,53.66
2023-01-15T11:49:22.777Z,51.75
2023-01-15T11:50:22.769Z,50.36
2023-01-15T11:51:22.734Z,54.96
2023-01-15T11:52:22.772Z,50.36
2023-01-15T11:53:22.713Z,49.13
2023-01-15T11:54:22.704Z,54.54
2023-01-15T11:55:22.691Z,54.04
2023-01-15T11:56:22.690Z,52.79
2023-01-15T11:57:22.721Z,53.21
2023-01-15T11:58:22.657Z,53.11
2023-01-15T11:59:22.649Z,48.13
2023-01-15T12:00:22.643Z,56.15
2023-01-15T12:01:22.644Z,53.73
2023-01-15T12:02:22.651Z,50.84
2023-01-15T12:03:22.715Z,49.05
2023-01-15T12:04:22.753Z,49.04
2023-01-15T12:05:22.600Z,55.70
2023-01-15T12:06:22.593Z,49.06
2023-01-15T12:07:22.569Z,50.25
2023-01-15T12:08:22.557Z,48.19
2023-01-15T12:09:22.542Z,54.14
2023-01-15T12:10:22.576Z,51.57
2023-01-15T12:11:27.166Z,51.03
2023-01-15T12:12:23.524Z,49.00
2023-01-15T12:13:22.537Z,51.71
2023-01-15T12:14:22.527Z,47.11
2023-01-15T12:15:22.494Z,52.07
2023-01-15T12:16:22.540Z,54.06
2023-01-15T12:17:22.512Z,50.90
2023-01-15T12:18:22.447Z,52.86
2023-01-15T12:19:22.465Z,50.11
2023-01-15T12:20:22.441Z,50.58
2023-01-15T12:21:22.419Z,48.38
2023-01-15T12:22:22.441Z,49.66
2023-01-15T12:23:22.396Z,52.48
2023-01-15T12:24:22.416Z,50.58
2023-01-15T12:25:22.374Z,53.87
2023-01-15T12:26:22.369Z,48.80
2023-01-15T12:27:22.376Z,50.03
2023-01-15T12:28:22.396Z,49.70
2023-01-15T12:29:22.336Z,49.12
2023-01-15T12:30:22.338Z,50.87
2023-01-15T12:31:22.380Z,51.15
2023-01-15T12:32:22.342Z,47.09
2023-01-15T12:33:22.280Z,48.20
2023-01-15T12:34:22.272Z,53.79
2023-01-15T12:35:22.281Z,48.18
2023-01-15T12:36:22.295Z,51.25
2023-01-15T12:37:22.275Z,49.78
2023-01-15T12:38:22.259Z,52.82
2023-01-15T12:39:22.300Z,50.36
2023-01-15T12:40:22.200Z,48.72
2023-01-15T12:41:22.236Z,57.54
2023-01-15T12:42:22.242Z,51.76
2023-01-15T12:43:22.236Z,49.77
2023-01-15T12:44:22.215Z,48.76
2023-01-15T12:45:22.200Z,50.02
2023-01-15T12:46:22.248Z,52.16
2023-01-15T12:47:22.157Z,51.35
2023-01-15T12:48:22.147Z,52.10
2023-01-15T12:49:22.126Z,52.03
2023-01-15T12:50:22.139Z,48.08
2023-01-15T12:51:23.788Z,49.98
2023-01-15T12:52:22.095Z,50.16
2023-01-15T12:53:22.130Z,51.92